VEJS/IXW METAR and TAF weather

Enter ICAO airport designator
Station Type Date Time Source
VEJS METAR 2020/08/14 12:00 UTC NOAA

VEJS 141200Z 09003KT 5000 HZ SCT015 SCT025 BKN100 29/27 Q0994


Station Type Date Time Source
VEJS Decoded METAR 2020/08/14 12:00 UTC NOAA

Jamshedpur, India (VEJS) 22-49N 086-11E 142M
Aug 14, 2020 - 08:00 AM EDT / 2020.08.14 1200 UTC
Wind: from the E (090 degrees) at 3 MPH (3 KT):0
Visibility: 3 mile(s):0
Sky conditions: mostly cloudy
Weather: haze
Temperature: 84 F (29 C)
Dew Point: 80 F (27 C)
Relative Humidity: 88%
Pressure (altimeter): 29.35 in. Hg (0994 hPa)
ob: VEJS 141200Z 09003KT 5000 HZ SCT015 SCT025 BKN100 29/27 Q0994
cycle: 12

Station Type Date Time Source
VEJS TAF 2009/11/01 09:00 UTC NOAA

TAF VEJS 010900Z 0112/0121 36004KT 2500 HZ FEW020 SCT025 SCT100
BECMG 0116/0118 00000KT 2000 HZ FEW018 SCT
BECMG 0119/0121 00000KT 1600 BR

Example: see airport list